Time;durP1;ratioP1;P1;durP2;ratioP2;P2;SDS_P1;SDS_P2;PMS_P1;PMS_P2;Temp;Humidity;BMP_temperature;BMP_pressure;BME280_temperature;BME280_humidity;BME280_pressure;Samples;Min_cycle;Max_cycle;Signal;HPM_P1;HPM_P2
2022/04/20 00:01:24;;;;;;;9.65;2.85;;;9.10;99.00;;;;;;4981909;28;20502;-61
2022/04/20 00:03:50;;;;;;;5.78;3.08;;;9.10;98.80;;;;;;4987298;28;20038;-61
2022/04/20 00:06:16;;;;;;;5.70;2.83;;;9.10;98.80;;;;;;4984311;28;20497;-61
2022/04/20 00:08:42;;;;;;;5.13;2.97;;;9.00;98.60;;;;;;4969210;28;20177;-61
2022/04/20 00:11:08;;;;;;;7.10;3.63;;;9.00;98.60;;;;;;4972513;28;20047;-61
2022/04/20 00:13:35;;;;;;;3.88;2.72;;;9.00;98.50;;;;;;4968091;28;20386;-61
2022/04/20 00:16:01;;;;;;;6.88;3.55;;;9.00;98.60;;;;;;4935592;28;20282;-62
2022/04/20 00:18:27;;;;;;;6.88;3.03;;;9.00;98.40;;;;;;4949884;28;20472;-61
2022/04/20 00:20:52;;;;;;;4.38;2.80;;;8.90;98.30;;;;;;4962582;28;20047;-61
2022/04/20 00:23:18;;;;;;;3.72;2.47;;;8.90;98.10;;;;;;4965959;28;20045;-62
2022/04/20 00:25:44;;;;;;;4.55;3.20;;;8.90;98.00;;;;;;4934355;28;20047;-61
2022/04/20 00:28:09;;;;;;;5.85;3.30;;;8.80;97.80;;;;;;4962445;28;20122;-61
2022/04/20 00:30:35;;;;;;;4.88;2.97;;;8.90;98.10;;;;;;4964224;28;20100;-62
2022/04/20 00:33:01;;;;;;;5.95;3.30;;;8.80;97.90;;;;;;4965984;28;20164;-62
2022/04/20 00:35:27;;;;;;;5.72;3.17;;;8.80;97.60;;;;;;4951715;28;20129;-62
2022/04/20 00:37:53;;;;;;;5.82;2.97;;;8.70;97.60;;;;;;4968442;28;20584;-62
2022/04/20 00:40:19;;;;;;;7.90;3.20;;;8.70;97.70;;;;;;4949987;28;20273;-62
2022/04/20 00:42:45;;;;;;;4.10;2.70;;;8.70;97.70;;;;;;4978877;28;20552;-61
2022/04/20 00:45:12;;;;;;;5.50;2.80;;;8.60;97.40;;;;;;4971505;28;20740;-61
2022/04/20 00:47:39;;;;;;;4.78;3.03;;;8.60;97.20;;;;;;4971755;28;20129;-62
2022/04/20 00:50:07;;;;;;;5.05;2.67;;;8.50;97.20;;;;;;4953456;28;20097;-62
2022/04/20 00:52:33;;;;;;;5.57;2.78;;;8.50;97.30;;;;;;4941799;28;20441;-62
2022/04/20 00:54:59;;;;;;;5.18;2.47;;;8.50;97.20;;;;;;4976078;28;20038;-61
2022/04/20 00:57:25;;;;;;;4.85;3.20;;;8.40;97.30;;;;;;4960603;28;20039;-61
2022/04/20 00:59:54;;;;;;;4.57;3.17;;;8.40;97.20;;;;;;4971166;28;20089;-61
2022/04/20 01:02:21;;;;;;;6.05;3.03;;;8.40;97.10;;;;;;4972021;28;20112;-62
2022/04/20 01:04:47;;;;;;;6.93;3.33;;;8.40;97.10;;;;;;4956984;28;20977;-62
2022/04/20 01:07:14;;;;;;;7.32;3.10;;;8.30;97.00;;;;;;4968987;28;20034;-61
2022/04/20 01:09:41;;;;;;;6.13;3.08;;;8.30;97.20;;;;;;4954299;28;20050;-62
2022/04/20 01:12:08;;;;;;;4.90;2.97;;;8.30;97.20;;;;;;4976085;28;20133;-62
2022/04/20 01:14:34;;;;;;;5.38;3.28;;;8.20;97.40;;;;;;4973865;28;20046;-62
2022/04/20 01:17:00;;;;;;;6.45;3.70;;;8.30;97.40;;;;;;4961033;28;20054;-61
2022/04/20 01:19:40;;;;;;;4.65;3.22;;;8.20;97.20;;;;;;4974303;28;20073;-61
2022/04/20 01:22:08;;;;;;;4.53;3.05;;;8.10;97.20;;;;;;4976515;28;20049;-61
2022/04/20 01:24:35;;;;;;;5.43;3.10;;;8.10;97.20;;;;;;4977071;28;20046;-61
2022/04/20 01:27:03;;;;;;;4.90;3.10;;;8.10;97.30;;;;;;4975597;28;20045;-62
2022/04/20 01:29:29;;;;;;;6.28;3.63;;;8.00;97.10;;;;;;4973519;28;20125;-61
2022/04/20 01:31:56;;;;;;;4.95;3.50;;;8.00;97.20;;;;;;4975141;28;20045;-62
2022/04/20 01:34:22;;;;;;;5.93;3.85;;;8.00;97.50;;;;;;4969476;28;20035;-61
2022/04/20 01:36:48;;;;;;;4.65;3.17;;;8.00;97.40;;;;;;4977938;28;20038;-63
2022/04/20 01:39:15;;;;;;;6.15;3.20;;;8.00;97.50;;;;;;4985650;28;20034;-62
2022/04/20 01:41:41;;;;;;;6.40;3.72;;;7.90;97.70;;;;;;4977315;28;20047;-61
2022/04/20 01:44:07;;;;;;;5.38;3.53;;;7.90;97.80;;;;;;4979371;28;20572;-62
2022/04/20 01:46:33;;;;;;;6.65;3.30;;;7.90;97.90;;;;;;4984547;28;20037;-62
2022/04/20 01:48:59;;;;;;;5.25;3.88;;;7.80;97.90;;;;;;4977714;28;20053;-62
2022/04/20 01:54:11;;;;;;;5.13;3.63;;;7.90;98.00;;;;;;4978056;28;20077;-62
2022/04/20 01:56:37;;;;;;;7.28;3.60;;;7.90;98.20;;;;;;4981445;28;20064;-62
2022/04/20 01:59:03;;;;;;;5.13;3.65;;;7.90;98.20;;;;;;4970326;28;20043;-61
2022/04/20 02:04:13;;;;;;;6.63;3.60;;;7.90;98.30;;;;;;4984745;28;20046;-62
2022/04/20 02:06:39;;;;;;;6.70;3.42;;;7.90;98.40;;;;;;4981451;28;20034;-62
2022/04/20 02:09:05;;;;;;;5.25;4.03;;;7.80;98.30;;;;;;4973291;28;20038;-61
2022/04/20 02:11:31;;;;;;;5.70;3.92;;;7.80;98.40;;;;;;4977523;28;20405;-61
2022/04/20 02:13:58;;;;;;;5.20;3.83;;;7.80;98.30;;;;;;4979987;28;20405;-61
2022/04/20 02:16:24;;;;;;;5.93;3.50;;;7.80;98.40;;;;;;4973338;28;20061;-61
2022/04/20 02:18:50;;;;;;;5.65;3.22;;;7.80;98.60;;;;;;4961673;28;20203;-60
2022/04/20 02:21:15;;;;;;;5.43;3.45;;;7.80;98.70;;;;;;4971760;28;20066;-61
2022/04/20 02:23:41;;;;;;;6.47;3.75;;;7.70;98.60;;;;;;4973363;28;20038;-61
2022/04/20 02:26:07;;;;;;;6.20;4.00;;;7.70;98.70;;;;;;4953516;28;20563;-61
2022/04/20 02:28:33;;;;;;;4.80;3.63;;;7.60;98.80;;;;;;4973988;28;20481;-61
2022/04/20 02:30:58;;;;;;;6.07;3.40;;;7.60;98.90;;;;;;4961988;28;20064;-61
2022/04/20 02:33:24;;;;;;;7.32;3.92;;;7.60;99.10;;;;;;4960371;28;20046;-60
2022/04/20 02:35:50;;;;;;;6.13;3.50;;;7.60;99.10;;;;;;4976327;28;20050;-62
2022/04/20 02:38:17;;;;;;;6.00;3.78;;;7.60;99.10;;;;;;4973076;28;20057;-62
2022/04/20 02:40:43;;;;;;;5.15;3.45;;;7.50;98.90;;;;;;4966518;28;20046;-61
2022/04/20 02:43:09;;;;;;;5.72;2.88;;;7.50;99.00;;;;;;4969361;28;20076;-61
2022/04/20 02:45:36;;;;;;;5.13;3.65;;;7.50;99.30;;;;;;4975243;28;20042;-61
2022/04/20 02:48:02;;;;;;;5.18;3.40;;;7.50;99.40;;;;;;4977562;28;20097;-62
2022/04/20 02:50:28;;;;;;;7.22;4.10;;;7.50;99.50;;;;;;4975157;28;20047;-62
2022/04/20 02:52:55;;;;;;;7.82;3.55;;;7.50;99.60;;;;;;4965736;28;20401;-61
2022/04/20 02:55:21;;;;;;;5.90;3.80;;;7.40;99.50;;;;;;4980577;28;20042;-61
2022/04/20 02:57:47;;;;;;;8.27;3.75;;;7.40;99.70;;;;;;4964691;28;20050;-62
2022/04/20 03:00:14;;;;;;;7.57;4.10;;;7.40;99.90;;;;;;4955025;28;20296;-61
2022/04/20 03:02:40;;;;;;;5.88;3.92;;;7.40;99.80;;;;;;4980478;28;20046;-61
2022/04/20 03:05:06;;;;;;;5.22;3.53;;;7.40;99.90;;;;;;4978457;28;20457;-62
2022/04/20 03:07:32;;;;;;;6.90;4.30;;;7.40;99.90;;;;;;4946840;28;20054;-61
2022/04/20 03:09:58;;;;;;;7.28;3.97;;;7.40;99.90;;;;;;4979742;28;20046;-61
2022/04/20 03:12:23;;;;;;;5.78;3.95;;;7.40;99.90;;;;;;4960173;28;20405;-61
2022/04/20 03:14:51;;;;;;;4.88;3.28;;;7.30;99.80;;;;;;4975287;28;20069;-61
2022/04/20 03:17:17;;;;;;;7.25;5.30;;;7.30;99.90;;;;;;4963555;28;20145;-61
2022/04/20 03:19:43;;;;;;;10.50;4.60;;;7.30;99.90;;;;;;4979173;28;20031;-61
2022/04/20 03:22:09;;;;;;;8.13;4.13;;;7.30;99.90;;;;;;4978670;28;20046;-60
2022/04/20 03:24:34;;;;;;;5.80;3.80;;;7.30;99.90;;;;;;4977576;28;20724;-60
2022/04/20 03:27:00;;;;;;;6.13;4.47;;;7.20;99.90;;;;;;4979278;28;20047;-61
2022/04/20 03:29:26;;;;;;;5.13;3.42;;;7.10;99.90;;;;;;4942129;28;20260;-61
2022/04/20 03:31:53;;;;;;;8.88;4.22;;;7.20;99.90;;;;;;4977454;28;20406;-62
2022/04/20 03:34:19;;;;;;;6.82;4.03;;;7.20;99.90;;;;;;4971340;28;20276;-61
2022/04/20 03:36:46;;;;;;;7.32;4.43;;;7.10;99.90;;;;;;4974777;28;20108;-62
2022/04/20 03:39:12;;;;;;;5.80;3.88;;;7.10;99.90;;;;;;4982738;28;20093;-61
2022/04/20 03:41:38;;;;;;;8.27;5.20;;;7.20;99.90;;;;;;4968131;28;20089;-61
2022/04/20 03:44:03;;;;;;;8.23;4.72;;;7.20;99.90;;;;;;4982080;28;20133;-61
2022/04/20 03:46:29;;;;;;;7.53;3.70;;;7.20;99.90;;;;;;4984628;28;20038;-61
2022/04/20 03:48:55;;;;;;;5.53;3.88;;;7.10;99.90;;;;;;4981892;28;20043;-61
2022/04/20 03:51:21;;;;;;;7.50;4.60;;;7.10;99.90;;;;;;4966624;28;20038;-62
2022/04/20 03:53:47;;;;;;;10.05;5.40;;;7.00;99.90;;;;;;4970624;28;20061;-62
2022/04/20 03:56:13;;;;;;;8.48;4.65;;;7.00;99.90;;;;;;4982950;28;20080;-61
2022/04/20 03:58:38;;;;;;;7.53;4.80;;;6.90;99.90;;;;;;4966045;28;20100;-60
2022/04/20 04:01:05;;;;;;;6.00;4.20;;;7.00;99.90;;;;;;4967899;28;20046;-60
2022/04/20 04:03:31;;;;;;;8.85;4.40;;;6.90;99.90;;;;;;4982913;28;20625;-60
2022/04/20 04:05:57;;;;;;;6.82;4.32;;;6.90;99.90;;;;;;4979026;28;20155;-61
2022/04/20 04:08:23;;;;;;;7.03;4.72;;;6.90;99.90;;;;;;4969893;28;20041;-61
2022/04/20 04:10:50;;;;;;;8.32;4.35;;;6.90;99.90;;;;;;4975390;28;20054;-61
2022/04/20 04:13:17;;;;;;;7.03;4.45;;;6.90;99.90;;;;;;4974827;28;20505;-61
2022/04/20 04:15:44;;;;;;;7.22;4.28;;;6.90;99.90;;;;;;4973610;28;20034;-61
2022/04/20 04:18:10;;;;;;;9.68;4.40;;;6.90;99.90;;;;;;4959789;28;20398;-61
2022/04/20 04:20:35;;;;;;;7.47;3.92;;;6.80;99.90;;;;;;4973845;28;20038;-61
2022/04/20 04:23:02;;;;;;;8.68;5.00;;;6.80;99.90;;;;;;4974846;28;20042;-61
2022/04/20 04:25:28;;;;;;;5.90;4.05;;;6.80;99.90;;;;;;4977353;28;20078;-62
2022/04/20 04:27:54;;;;;;;7.55;5.00;;;6.90;99.90;;;;;;4977729;28;20046;-62
2022/04/20 04:30:19;;;;;;;6.32;4.57;;;6.90;99.90;;;;;;4974243;28;20567;-62
2022/04/20 04:32:47;;;;;;;10.18;4.82;;;6.80;99.90;;;;;;4958524;28;20044;-61
2022/04/20 04:35:13;;;;;;;6.60;4.13;;;6.80;99.90;;;;;;4955953;28;20046;-62
2022/04/20 04:37:40;;;;;;;8.25;4.63;;;6.80;99.90;;;;;;4974174;28;20474;-62
2022/04/20 04:40:06;;;;;;;7.05;5.03;;;6.70;99.90;;;;;;4977703;28;20284;-62
2022/04/20 04:42:32;;;;;;;7.78;4.35;;;6.80;99.90;;;;;;4970531;28;20099;-61
2022/04/20 04:50:26;;;;;;;6.00;4.20;;;6.80;99.90;;;;;;4973826;28;19918;-61
2022/04/20 04:52:53;;;;;;;6.30;4.20;;;6.80;99.90;;;;;;4962255;28;20081;-62
2022/04/20 04:55:19;;;;;;;6.38;4.78;;;6.80;99.90;;;;;;4959023;28;20061;-61
2022/04/20 04:57:45;;;;;;;6.32;4.03;;;6.80;99.90;;;;;;4975165;28;20055;-61
2022/04/20 05:00:11;;;;;;;8.27;4.63;;;6.80;99.90;;;;;;4973054;28;20050;-62
2022/04/20 05:02:37;;;;;;;7.28;4.70;;;6.80;99.90;;;;;;4967325;28;20061;-62
2022/04/20 05:05:04;;;;;;;6.53;4.13;;;6.80;99.90;;;;;;4973896;28;20042;-61
2022/04/20 05:07:30;;;;;;;8.48;4.15;;;6.80;99.90;;;;;;4960482;28;20379;-60
2022/04/20 05:09:55;;;;;;;8.45;4.90;;;6.80;99.90;;;;;;4977747;28;20125;-61
2022/04/20 05:12:21;;;;;;;9.40;4.75;;;6.80;99.90;;;;;;4942209;28;20046;-61
2022/04/20 05:14:47;;;;;;;7.20;4.55;;;6.80;99.90;;;;;;4979388;28;20505;-60
2022/04/20 05:17:13;;;;;;;7.45;4.38;;;6.90;99.90;;;;;;4944783;28;20307;-61
2022/04/20 05:19:39;;;;;;;7.03;5.00;;;6.80;99.90;;;;;;4980057;28;20046;-61
2022/04/20 05:22:05;;;;;;;6.45;4.80;;;6.80;99.90;;;;;;4961653;28;20053;-61
2022/04/20 05:24:30;;;;;;;8.57;5.40;;;6.90;99.90;;;;;;4962296;28;20038;-61
2022/04/20 05:26:56;;;;;;;6.45;4.70;;;6.90;99.90;;;;;;4962169;28;20050;-61
2022/04/20 05:29:22;;;;;;;6.22;4.80;;;6.90;99.90;;;;;;4979333;28;20061;-61
2022/04/20 05:31:52;;;;;;;9.10;5.35;;;6.90;99.90;;;;;;4977223;28;21994;-61
2022/04/20 05:34:18;;;;;;;7.68;4.47;;;7.00;99.90;;;;;;4973939;28;20393;-61
2022/04/20 05:42:12;;;;;;;9.90;4.43;;;7.10;99.90;;;;;;4980629;28;19921;-61
2022/04/20 05:44:38;;;;;;;8.70;4.95;;;7.10;99.90;;;;;;4953778;28;20042;-61
2022/04/20 05:47:04;;;;;;;6.80;4.43;;;7.20;99.90;;;;;;4979862;28;20097;-61
2022/04/20 05:49:30;;;;;;;5.85;4.13;;;7.20;99.90;;;;;;4965655;28;20034;-61
2022/04/20 05:51:55;;;;;;;9.57;4.20;;;7.40;99.90;;;;;;4984402;28;20107;-61
2022/04/20 05:54:21;;;;;;;5.63;4.32;;;7.40;99.90;;;;;;4984780;28;20049;-60
2022/04/20 05:56:47;;;;;;;5.68;4.18;;;7.50;99.90;;;;;;4967356;28;20046;-60
2022/04/20 05:59:13;;;;;;;7.07;4.88;;;7.50;99.90;;;;;;4948661;28;20448;-61
2022/04/20 06:01:38;;;;;;;7.40;4.70;;;7.60;99.90;;;;;;4971677;28;20049;-61
2022/04/20 06:04:04;;;;;;;6.93;3.88;;;7.70;99.90;;;;;;4979910;28;20433;-61
2022/04/20 06:06:30;;;;;;;7.10;4.10;;;7.80;99.90;;;;;;4962186;28;20121;-60
2022/04/20 06:08:56;;;;;;;7.00;4.90;;;7.80;99.90;;;;;;4962813;28;20124;-61
2022/04/20 06:11:21;;;;;;;6.20;4.55;;;7.80;99.90;;;;;;4960259;28;20529;-61
2022/04/20 06:13:47;;;;;;;6.70;5.00;;;7.90;99.90;;;;;;4975298;28;20560;-61
2022/04/20 06:16:13;;;;;;;6.95;4.63;;;8.00;99.90;;;;;;4961244;28;20053;-61
2022/04/20 06:18:38;;;;;;;8.65;5.10;;;8.10;99.90;;;;;;4977907;28;20133;-61
2022/04/20 06:21:05;;;;;;;6.55;4.35;;;8.10;99.90;;;;;;4965362;28;20050;-61
2022/04/20 06:23:31;;;;;;;5.82;4.35;;;8.20;99.90;;;;;;4977234;28;20129;-60
2022/04/20 06:25:57;;;;;;;6.28;4.90;;;8.30;99.90;;;;;;4955724;28;20477;-61
2022/04/20 06:28:26;;;;;;;6.95;4.78;;;8.40;99.90;;;;;;4959939;28;20121;-61
2022/04/20 06:30:53;;;;;;;7.97;4.50;;;8.50;99.90;;;;;;4973543;28;20047;-61
2022/04/20 06:33:21;;;;;;;7.45;4.30;;;8.60;99.90;;;;;;4954673;28;20089;-60
2022/04/20 06:35:47;;;;;;;5.68;3.90;;;8.70;99.90;;;;;;4957780;28;20089;-61
2022/04/20 06:38:13;;;;;;;6.03;4.22;;;8.80;99.90;;;;;;4975500;23;20109;-62
2022/04/20 06:40:39;;;;;;;5.45;4.25;;;8.90;99.90;;;;;;4944787;28;20105;-62
2022/04/20 06:43:05;;;;;;;6.22;4.50;;;9.00;99.90;;;;;;4960739;28;20046;-62
2022/04/20 06:45:31;;;;;;;6.43;4.28;;;9.10;99.90;;;;;;4993677;28;20424;-61
2022/04/20 06:48:00;;;;;;;7.25;3.97;;;9.10;99.90;;;;;;4989511;28;20717;-62
2022/04/20 06:50:27;;;;;;;7.88;4.22;;;9.10;99.40;;;;;;4994134;28;20132;-60
2022/04/20 06:58:35;;;;;;;8.68;4.45;;;9.50;99.20;;;;;;4987872;28;20061;-62
2022/04/20 07:01:04;;;;;;;7.70;5.28;;;9.60;98.70;;;;;;4996470;28;20057;-62
2022/04/20 07:03:31;;;;;;;7.40;4.20;;;9.80;98.70;;;;;;4989754;28;20286;-60
2022/04/20 07:05:58;;;;;;;6.65;4.30;;;9.90;98.30;;;;;;4995908;28;20132;-62
2022/04/20 07:08:24;;;;;;;7.95;5.07;;;10.00;98.20;;;;;;4976902;28;20074;-61
2022/04/20 07:10:50;;;;;;;5.82;3.85;;;10.10;97.80;;;;;;4990935;28;20045;-61
2022/04/20 07:13:16;;;;;;;7.55;4.13;;;10.20;97.40;;;;;;4997381;28;20041;-61
2022/04/20 07:15:44;;;;;;;8.55;4.38;;;10.30;96.80;;;;;;4988948;28;20108;-62
2022/04/20 07:18:10;;;;;;;7.32;4.35;;;10.40;96.00;;;;;;4990192;28;20048;-62
2022/04/20 07:20:35;;;;;;;7.18;3.97;;;10.40;96.00;;;;;;4972133;28;20050;-61
2022/04/20 07:23:01;;;;;;;6.93;4.15;;;10.50;95.50;;;;;;4989758;28;20112;-62
2022/04/20 07:25:29;;;;;;;8.63;4.25;;;10.50;95.20;;;;;;4991833;28;20535;-60
2022/04/20 07:27:55;;;;;;;7.05;4.68;;;10.60;94.90;;;;;;4998525;28;20078;-62
2022/04/20 07:30:21;;;;;;;9.80;4.55;;;10.80;94.80;;;;;;4990334;28;20042;-61
2022/04/20 07:32:48;;;;;;;6.75;4.22;;;11.00;94.50;;;;;;4999551;28;20527;-61
2022/04/20 07:35:14;;;;;;;6.53;4.70;;;11.10;94.30;;;;;;4984930;28;20129;-60
2022/04/20 07:37:40;;;;;;;5.93;3.58;;;11.20;94.30;;;;;;5008217;28;20052;-59
2022/04/20 07:40:06;;;;;;;4.68;3.42;;;11.40;93.50;;;;;;5007492;28;20112;-60
2022/04/20 07:42:33;;;;;;;6.38;3.53;;;11.50;92.10;;;;;;5002552;28;20030;-60
2022/04/20 07:44:59;;;;;;;7.97;4.05;;;11.60;92.30;;;;;;5011571;28;20129;-61
2022/04/20 07:47:27;;;;;;;4.82;3.53;;;11.70;91.90;;;;;;4997165;28;20484;-61
2022/04/20 07:52:42;;;;;;;6.95;3.33;;;11.80;90.40;;;;;;5008750;28;20043;-64
2022/04/20 07:55:17;;;;;;;5.07;3.60;;;11.90;90.60;;;;;;4986862;28;20054;-62
2022/04/20 07:57:43;;;;;;;6.00;3.75;;;11.90;89.70;;;;;;5009092;28;20041;-61
2022/04/20 08:00:11;;;;;;;5.47;4.18;;;11.90;90.20;;;;;;5013719;28;20037;-61
2022/04/20 08:02:37;;;;;;;5.57;3.83;;;12.00;90.30;;;;;;5020086;28;20515;-65
2022/04/20 08:05:03;;;;;;;5.53;3.78;;;12.10;89.90;;;;;;5019376;28;20050;-64
2022/04/20 08:07:28;;;;;;;5.70;3.67;;;12.10;89.20;;;;;;4995584;28;20065;-61
2022/04/20 08:09:54;;;;;;;5.43;3.83;;;12.20;89.30;;;;;;5015606;28;20492;-61
2022/04/20 08:12:20;;;;;;;5.97;3.53;;;12.30;87.50;;;;;;4982633;28;20042;-61
2022/04/20 08:14:46;;;;;;;8.88;4.13;;;12.30;86.10;;;;;;5001253;28;20049;-60
2022/04/20 08:17:12;;;;;;;7.13;3.65;;;12.30;85.50;;;;;;5004888;28;20121;-63
2022/04/20 08:19:37;;;;;;;6.53;3.78;;;12.40;85.60;;;;;;5011160;28;20148;-66
2022/04/20 08:22:07;;;;;;;7.15;3.80;;;12.50;85.30;;;;;;5009100;28;20500;-61
2022/04/20 08:24:33;;;;;;;6.18;3.45;;;12.60;83.50;;;;;;5012223;28;20232;-62
2022/04/20 08:26:59;;;;;;;6.63;3.72;;;12.70;82.20;;;;;;4991265;28;20046;-62
2022/04/20 08:29:25;;;;;;;3.60;2.60;;;12.80;81.40;;;;;;4998024;28;20106;-62
2022/04/20 08:31:51;;;;;;;6.80;3.22;;;12.90;81.00;;;;;;4995777;28;20471;-58
2022/04/20 08:34:17;;;;;;;4.95;3.10;;;13.00;79.10;;;;;;5012986;28;20072;-66
2022/04/20 08:36:43;;;;;;;7.32;3.22;;;13.00;80.40;;;;;;4981233;28;20396;-62
2022/04/20 08:39:09;;;;;;;6.07;3.42;;;13.20;80.40;;;;;;5009922;28;20450;-62
2022/04/20 08:41:35;;;;;;;3.70;2.88;;;13.40;80.50;;;;;;5006475;28;20026;-62
2022/04/20 08:44:02;;;;;;;5.45;2.65;;;13.40;75.80;;;;;;4995335;28;20169;-61
2022/04/20 08:46:37;;;;;;;4.35;2.65;;;13.30;75.40;;;;;;5005299;28;20050;-60
2022/04/20 08:49:04;;;;;;;4.10;2.70;;;13.30;74.20;;;;;;4997045;28;20444;-59
2022/04/20 08:52:37;;;;;;;4.65;2.75;;;13.40;75.60;;;;;;5000080;28;20045;-61
2022/04/20 08:54:17;;;;;;;6.03;2.90;;;13.50;75.40;;;;;;5005551;28;20046;-62
2022/04/20 08:59:28;;;;;;;5.15;2.53;;;13.70;72.80;;;;;;5003917;28;20140;-61
2022/04/20 09:01:54;;;;;;;4.57;2.50;;;13.70;71.10;;;;;;4992568;28;20084;-61
2022/04/20 09:04:20;;;;;;;5.40;2.80;;;13.80;72.80;;;;;;4982224;28;20046;-59
2022/04/20 09:06:46;;;;;;;3.97;2.63;;;14.10;72.10;;;;;;5006247;28;20046;-58
2022/04/20 09:09:11;;;;;;;4.50;2.58;;;14.20;68.50;;;;;;4991589;28;20034;-64
2022/04/20 09:11:38;;;;;;;3.90;2.30;;;14.10;68.70;;;;;;4994986;28;20038;-61
2022/04/20 09:14:14;;;;;;;4.90;2.40;;;14.10;68.30;;;;;;4999015;28;20068;-60
2022/04/20 09:16:41;;;;;;;6.55;2.65;;;14.30;68.30;;;;;;5005126;28;20083;-60
2022/04/20 09:19:07;;;;;;;5.13;2.80;;;14.40;66.00;;;;;;5010111;28;20045;-60
2022/04/20 09:21:34;;;;;;;2.95;2.03;;;14.50;66.70;;;;;;5010865;28;20129;-66
2022/04/20 09:24:10;;;;;;;4.85;2.20;;;14.60;65.10;;;;;;4998983;28;20128;-61
2022/04/20 09:26:50;;;;;;;4.28;2.25;;;14.70;66.00;;;;;;5008409;28;20133;-62
2022/04/20 09:29:16;;;;;;;4.63;1.98;;;14.80;63.40;;;;;;5003339;28;20172;-62
2022/04/20 09:31:44;;;;;;;3.90;2.20;;;14.90;64.70;;;;;;5000890;28;20045;-65
2022/04/20 09:34:31;;;;;;;4.30;1.88;;;15.10;64.70;;;;;;5004464;28;20049;-61
2022/04/20 09:36:57;;;;;;;2.97;1.92;;;15.10;63.30;;;;;;5001592;28;20052;-62
2022/04/20 09:39:25;;;;;;;3.25;1.70;;;15.10;61.80;;;;;;5008372;28;20508;-62
2022/04/20 09:42:02;;;;;;;2.70;1.85;;;15.10;59.90;;;;;;4991243;28;20038;-65
2022/04/20 09:44:32;;;;;;;3.40;1.60;;;15.20;61.70;;;;;;4999176;28;20042;-61
2022/04/20 09:49:57;;;;;;;4.53;1.80;;;15.60;59.20;;;;;;4996646;28;20072;-66
2022/04/20 09:52:44;;;;;;;3.65;1.88;;;15.60;57.20;;;;;;4998631;28;20042;-62
2022/04/20 09:55:30;;;;;;;2.90;2.05;;;15.80;60.30;;;;;;4999502;28;20355;-59
2022/04/20 09:58:11;;;;;;;2.28;1.40;;;15.70;57.90;;;;;;5000171;28;20049;-61
2022/04/20 10:00:42;;;;;;;5.10;1.90;;;15.90;58.30;;;;;;4995930;28;20105;-60
2022/04/20 10:03:08;;;;;;;2.50;1.70;;;16.10;58.00;;;;;;5000625;28;20465;-65
2022/04/20 10:05:36;;;;;;;3.20;1.70;;;16.20;55.40;;;;;;5007031;28;20129;-62
2022/04/20 10:08:02;;;;;;;5.43;1.30;;;16.20;56.00;;;;;;4992949;28;20037;-59
2022/04/20 10:10:33;;;;;;;4.03;1.35;;;16.20;56.00;;;;;;5005403;28;20038;-60
2022/04/20 10:13:02;;;;;;;2.35;1.42;;;16.30;55.70;;;;;;4991828;28;20061;-60
2022/04/20 10:18:20;;;;;;;2.25;1.45;;;16.40;53.80;;;;;;4998802;28;20050;-60
2022/04/20 10:20:50;;;;;;;2.05;1.20;;;16.60;53.70;;;;;;4985926;28;20061;-57
2022/04/20 10:23:19;;;;;;;2.97;1.20;;;16.50;53.40;;;;;;4987008;28;20403;-59
2022/04/20 10:25:46;;;;;;;5.47;1.83;;;16.60;52.60;;;;;;4981817;28;20057;-65
2022/04/20 10:28:32;;;;;;;2.33;1.55;;;16.60;50.40;;;;;;4984521;28;20046;-63
2022/04/20 10:31:15;;;;;;;1.35;1.05;;;16.40;49.40;;;;;;5012590;28;20047;-59
2022/04/20 10:33:42;;;;;;;3.42;1.40;;;16.50;49.30;;;;;;4991603;28;20053;-63
2022/04/20 10:36:09;;;;;;;2.80;1.25;;;16.60;49.70;;;;;;4994688;28;20065;-60
2022/04/20 10:38:35;;;;;;;2.95;1.35;;;16.70;50.20;;;;;;4989974;28;20056;-60
2022/04/20 10:41:18;;;;;;;2.60;1.20;;;16.80;50.10;;;;;;4983748;28;20081;-61
2022/04/20 10:43:44;;;;;;;2.58;1.52;;;16.80;49.80;;;;;;4999581;28;20056;-64
2022/04/20 10:46:14;;;;;;;1.80;1.13;;;16.80;49.80;;;;;;4996571;28;20376;-60
2022/04/20 10:48:48;;;;;;;2.25;1.40;;;17.10;50.40;;;;;;5000550;28;20073;-59
2022/04/20 10:51:16;;;;;;;3.88;1.50;;;17.10;48.40;;;;;;4989611;28;20108;-59
2022/04/20 10:53:50;;;;;;;2.00;1.23;;;16.90;48.00;;;;;;4993670;28;20042;-59
2022/04/20 10:56:17;;;;;;;2.45;1.52;;;17.10;49.70;;;;;;4993909;28;20045;-61
2022/04/20 10:59:05;;;;;;;2.42;1.52;;;17.30;50.90;;;;;;4990754;28;20045;-61
2022/04/20 11:01:31;;;;;;;2.55;1.40;;;17.30;47.30;;;;;;4983445;28;20038;-59
2022/04/20 11:04:04;;;;;;;2.45;1.20;;;17.40;49.70;;;;;;4984401;28;20093;-61
2022/04/20 11:06:49;;;;;;;;;;;17.30;50.10;;;;;;4989294;28;20048;-60
2022/04/20 11:09:45;;;;;;;2.40;1.65;;;17.30;47.10;;;;;;4997794;28;19933;-59
2022/04/20 11:18:39;;;;;;;3.05;1.27;;;17.30;49.50;;;;;;4991565;28;20050;-58
2022/04/20 11:21:07;;;;;;;2.72;1.67;;;17.50;50.30;;;;;;4993588;28;20443;-60
2022/04/20 11:24:01;;;;;;;2.47;1.60;;;17.70;49.40;;;;;;4976459;28;20049;-61
2022/04/20 11:26:30;;;;;;;3.90;1.88;;;17.50;48.60;;;;;;4987711;28;20136;-59
2022/04/20 11:28:58;;;;;;;2.75;1.67;;;17.50;48.30;;;;;;4993332;28;20811;-62
2022/04/20 11:31:25;;;;;;;3.40;1.70;;;17.60;48.70;;;;;;4987545;28;20046;-59
2022/04/20 11:33:52;;;;;;;1.83;1.20;;;17.70;49.00;;;;;;4985156;28;20092;-59
2022/04/20 11:36:19;;;;;;;3.17;1.50;;;17.90;49.10;;;;;;4965021;28;20050;-60
2022/04/20 11:38:48;;;;;;;2.45;1.50;;;18.00;48.40;;;;;;5001351;28;20079;-62
2022/04/20 11:41:16;;;;;;;2.38;1.60;;;18.00;48.30;;;;;;5014053;28;20984;-64
2022/04/20 11:43:42;;;;;;;2.10;1.35;;;18.00;48.70;;;;;;5004619;28;20508;-60
2022/04/20 11:46:08;;;;;;;2.00;1.30;;;18.10;48.90;;;;;;5000499;28;20512;-59
2022/04/20 11:48:38;;;;;;;4.88;1.17;;;18.10;46.80;;;;;;5004544;28;20049;-59
2022/04/20 11:51:08;;;;;;;2.78;1.55;;;18.20;48.10;;;;;;4990797;28;20177;-59
2022/04/20 11:53:39;;;;;;;2.97;1.70;;;18.30;47.70;;;;;;4996701;28;20472;-65
2022/04/20 11:56:07;;;;;;;3.20;1.30;;;18.40;47.70;;;;;;5008746;28;20046;-60
2022/04/20 11:58:34;;;;;;;1.77;1.20;;;18.30;47.70;;;;;;5023287;28;20037;-60
2022/04/20 12:01:05;;;;;;;3.22;1.25;;;18.30;46.80;;;;;;5014916;28;20125;-59
2022/04/20 12:03:37;;;;;;;2.13;1.30;;;18.40;48.00;;;;;;5016507;28;20536;-60
2022/04/20 12:06:08;;;;;;;3.30;1.40;;;18.40;46.80;;;;;;5007472;28;20084;-62
2022/04/20 12:08:38;;;;;;;4.70;1.60;;;18.30;46.80;;;;;;4987828;28;20125;-61
2022/04/20 12:11:06;;;;;;;1.92;1.30;;;18.30;46.80;;;;;;5003839;28;20253;-60
2022/04/20 12:13:32;;;;;;;3.55;1.50;;;18.30;47.10;;;;;;5006119;28;21194;-60
2022/04/20 12:16:03;;;;;;;2.85;1.60;;;18.30;47.90;;;;;;4988547;28;20054;-60
2022/04/20 12:18:35;;;;;;;3.42;1.50;;;18.30;47.70;;;;;;5006751;28;20039;-61
2022/04/20 12:21:03;;;;;;;2.15;1.33;;;18.40;49.40;;;;;;4999742;28;20516;-60
2022/04/20 12:23:34;;;;;;;1.90;1.30;;;18.60;49.00;;;;;;5012571;28;20044;-59
2022/04/20 12:26:05;;;;;;;2.60;1.20;;;18.50;47.10;;;;;;4996379;28;20053;-60
2022/04/20 12:28:44;;;;;;;1.85;1.20;;;18.50;49.90;;;;;;5002936;28;20052;-65
2022/04/20 12:31:14;;;;;;;2.40;1.10;;;19.00;49.30;;;;;;4994474;28;20125;-60
2022/04/20 12:33:41;;;;;;;2.08;1.42;;;19.20;49.40;;;;;;5007589;28;20034;-60
2022/04/20 12:36:11;;;;;;;1.77;1.20;;;18.90;48.50;;;;;;5006897;28;20050;-60
2022/04/20 12:38:52;;;;;;;1.52;1.30;;;19.10;48.80;;;;;;5001570;28;20065;-65
2022/04/20 12:41:44;;;;;;;4.05;1.15;;;19.10;49.50;;;;;;5013348;28;20550;-59
2022/04/20 12:44:35;;;;;;;1.73;1.05;;;19.30;48.00;;;;;;4992590;28;20060;-59
2022/04/20 12:47:16;;;;;;;2.03;0.80;;;19.40;47.70;;;;;;5015740;28;20038;-60
2022/04/20 12:49:51;;;;;;;4.80;1.42;;;19.60;49.30;;;;;;5001630;28;20325;-61
2022/04/20 12:52:22;;;;;;;1.67;1.13;;;19.70;49.20;;;;;;4995935;28;20046;-63
2022/04/20 12:55:06;;;;;;;2.67;1.10;;;20.00;48.30;;;;;;5005839;28;20455;-59
2022/04/20 13:03:16;;;;;;;4.30;2.80;;;20.10;50.90;;;;;;4997551;28;20037;-59
2022/04/20 13:05:43;;;;;;;4.68;3.30;;;20.00;51.20;;;;;;4987682;28;20041;-64
2022/04/20 13:08:12;;;;;;;6.93;3.30;;;19.80;52.50;;;;;;5002493;28;20126;-61
2022/04/20 13:10:43;;;;;;;9.77;3.97;;;20.00;52.40;;;;;;4998786;28;20034;-59
2022/04/20 13:13:10;;;;;;;7.32;3.00;;;20.00;53.20;;;;;;4987712;28;20038;-60
2022/04/20 13:15:36;;;;;;;4.45;2.92;;;20.10;52.80;;;;;;5010276;28;20153;-59
2022/04/20 13:18:03;;;;;;;5.10;3.13;;;20.10;53.20;;;;;;4999205;28;20061;-63
2022/04/20 13:20:30;;;;;;;5.28;3.20;;;20.10;53.10;;;;;;4995478;28;20163;-62
2022/04/20 13:22:56;;;;;;;5.10;3.08;;;20.20;54.60;;;;;;4980656;28;20033;-60
2022/04/20 13:28:07;;;;;;;11.50;3.20;;;20.10;53.40;;;;;;4984438;28;20045;-58
2022/04/20 13:30:38;;;;;;;9.20;3.45;;;19.60;53.10;;;;;;4986557;28;20401;-59
2022/04/20 13:33:07;;;;;;;8.70;3.22;;;19.50;54.30;;;;;;4985494;28;20169;-58
2022/04/20 13:35:33;;;;;;;6.45;3.33;;;19.60;54.20;;;;;;4988302;28;20228;-61
2022/04/20 13:37:59;;;;;;;7.13;3.10;;;19.60;54.90;;;;;;5003766;28;20076;-61
2022/04/20 13:40:26;;;;;;;5.10;3.03;;;19.60;55.40;;;;;;5008030;28;20217;-60
2022/04/20 13:42:54;;;;;;;5.65;3.40;;;19.50;55.60;;;;;;5005578;28;20030;-63
2022/04/20 13:45:20;;;;;;;6.43;3.15;;;19.50;54.70;;;;;;5000549;28;20073;-61